sensor_id;sensor_type;location;lat;lon;timestamp;P1;durP1;ratioP1;P2;durP2;ratioP2
64188;SDS011;50493;50.970;10.082;2023-02-17T00:00:30;30.05;;;15.57;;
64188;SDS011;50493;50.970;10.082;2023-02-17T00:02:55;35.70;;;16.63;;
64188;SDS011;50493;50.970;10.082;2023-02-17T00:05:22;32.40;;;15.30;;
64188;SDS011;50493;50.970;10.082;2023-02-17T00:07:47;34.53;;;16.08;;
64188;SDS011;50493;50.970;10.082;2023-02-17T00:10:13;32.95;;;16.00;;
64188;SDS011;50493;50.970;10.082;2023-02-17T00:12:38;35.25;;;16.67;;
64188;SDS011;50493;50.970;10.082;2023-02-17T00:15:04;33.90;;;16.27;;
64188;SDS011;50493;50.970;10.082;2023-02-17T00:17:30;32.58;;;15.75;;
64188;SDS011;50493;50.970;10.082;2023-02-17T00:19:55;31.58;;;15.70;;
64188;SDS011;50493;50.970;10.082;2023-02-17T00:22:22;37.35;;;17.58;;
64188;SDS011;50493;50.970;10.082;2023-02-17T00:24:47;33.58;;;15.90;;
64188;SDS011;50493;50.970;10.082;2023-02-17T00:27:12;33.38;;;16.63;;
64188;SDS011;50493;50.970;10.082;2023-02-17T00:29:38;34.67;;;16.27;;
64188;SDS011;50493;50.970;10.082;2023-02-17T00:32:03;38.15;;;19.20;;
64188;SDS011;50493;50.970;10.082;2023-02-17T00:34:29;35.67;;;17.60;;
64188;SDS011;50493;50.970;10.082;2023-02-17T00:36:54;37.38;;;17.63;;
64188;SDS011;50493;50.970;10.082;2023-02-17T00:39:21;40.38;;;20.30;;
64188;SDS011;50493;50.970;10.082;2023-02-17T00:41:46;30.40;;;15.63;;
64188;SDS011;50493;50.970;10.082;2023-02-17T00:44:14;45.58;;;20.35;;
64188;SDS011;50493;50.970;10.082;2023-02-17T00:46:42;41.15;;;20.30;;
64188;SDS011;50493;50.970;10.082;2023-02-17T00:49:07;44.47;;;21.60;;
64188;SDS011;50493;50.970;10.082;2023-02-17T00:51:33;44.67;;;22.50;;
64188;SDS011;50493;50.970;10.082;2023-02-17T00:53:59;48.90;;;25.10;;
64188;SDS011;50493;50.970;10.082;2023-02-17T00:56:25;50.10;;;23.27;;
64188;SDS011;50493;50.970;10.082;2023-02-17T00:58:51;45.25;;;21.73;;
64188;SDS011;50493;50.970;10.082;2023-02-17T01:01:16;48.70;;;24.60;;
64188;SDS011;50493;50.970;10.082;2023-02-17T01:03:42;48.85;;;24.00;;
64188;SDS011;50493;50.970;10.082;2023-02-17T01:06:09;42.65;;;22.60;;
64188;SDS011;50493;50.970;10.082;2023-02-17T01:08:39;40.97;;;19.33;;
64188;SDS011;50493;50.970;10.082;2023-02-17T01:11:04;43.35;;;22.02;;
64188;SDS011;50493;50.970;10.082;2023-02-17T01:13:31;43.75;;;22.17;;
64188;SDS011;50493;50.970;10.082;2023-02-17T01:15:56;43.60;;;22.85;;
64188;SDS011;50493;50.970;10.082;2023-02-17T01:18:22;41.42;;;22.08;;
64188;SDS011;50493;50.970;10.082;2023-02-17T01:20:49;44.20;;;22.67;;
64188;SDS011;50493;50.970;10.082;2023-02-17T01:23:15;41.45;;;21.85;;
64188;SDS011;50493;50.970;10.082;2023-02-17T01:25:41;41.90;;;22.88;;
64188;SDS011;50493;50.970;10.082;2023-02-17T01:28:09;37.75;;;20.33;;
64188;SDS011;50493;50.970;10.082;2023-02-17T01:30:39;41.25;;;21.02;;
64188;SDS011;50493;50.970;10.082;2023-02-17T01:33:05;37.53;;;20.65;;
64188;SDS011;50493;50.970;10.082;2023-02-17T01:35:31;39.10;;;22.17;;
64188;SDS011;50493;50.970;10.082;2023-02-17T01:37:57;41.25;;;22.27;;
64188;SDS011;50493;50.970;10.082;2023-02-17T01:40:22;40.47;;;21.60;;
64188;SDS011;50493;50.970;10.082;2023-02-17T01:42:48;44.38;;;21.83;;
64188;SDS011;50493;50.970;10.082;2023-02-17T01:45:27;41.38;;;21.83;;
64188;SDS011;50493;50.970;10.082;2023-02-17T01:47:58;42.95;;;21.65;;
64188;SDS011;50493;50.970;10.082;2023-02-17T01:50:29;41.78;;;21.60;;
64188;SDS011;50493;50.970;10.082;2023-02-17T01:52:58;49.90;;;24.23;;
64188;SDS011;50493;50.970;10.082;2023-02-17T01:55:26;52.65;;;26.25;;
64188;SDS011;50493;50.970;10.082;2023-02-17T01:57:52;49.05;;;25.80;;
64188;SDS011;50493;50.970;10.082;2023-02-17T02:00:19;48.05;;;26.40;;
64188;SDS011;50493;50.970;10.082;2023-02-17T02:02:46;49.95;;;25.83;;
64188;SDS011;50493;50.970;10.082;2023-02-17T02:05:15;46.63;;;25.58;;
64188;SDS011;50493;50.970;10.082;2023-02-17T02:07:43;47.88;;;22.83;;
64188;SDS011;50493;50.970;10.082;2023-02-17T02:10:12;48.90;;;25.20;;
64188;SDS011;50493;50.970;10.082;2023-02-17T02:12:39;46.65;;;24.00;;
64188;SDS011;50493;50.970;10.082;2023-02-17T02:15:06;42.25;;;21.00;;
64188;SDS011;50493;50.970;10.082;2023-02-17T02:17:36;47.63;;;24.95;;
64188;SDS011;50493;50.970;10.082;2023-02-17T02:20:30;48.63;;;25.02;;
64188;SDS011;50493;50.970;10.082;2023-02-17T02:23:11;48.97;;;24.90;;
64188;SDS011;50493;50.970;10.082;2023-02-17T02:25:51;43.92;;;24.65;;
64188;SDS011;50493;50.970;10.082;2023-02-17T02:28:37;47.72;;;25.90;;
64188;SDS011;50493;50.970;10.082;2023-02-17T02:31:20;45.58;;;24.23;;
64188;SDS011;50493;50.970;10.082;2023-02-17T02:33:55;46.33;;;24.90;;
64188;SDS011;50493;50.970;10.082;2023-02-17T02:36:24;46.60;;;23.60;;
64188;SDS011;50493;50.970;10.082;2023-02-17T02:38:55;51.30;;;26.27;;
64188;SDS011;50493;50.970;10.082;2023-02-17T02:41:26;47.35;;;22.85;;
64188;SDS011;50493;50.970;10.082;2023-02-17T02:43:55;45.28;;;22.73;;
64188;SDS011;50493;50.970;10.082;2023-02-17T02:46:21;37.08;;;17.95;;
64188;SDS011;50493;50.970;10.082;2023-02-17T02:48:46;39.50;;;19.60;;
64188;SDS011;50493;50.970;10.082;2023-02-17T02:51:26;45.53;;;24.45;;
64188;SDS011;50493;50.970;10.082;2023-02-17T02:54:04;41.58;;;21.02;;
64188;SDS011;50493;50.970;10.082;2023-02-17T02:56:41;37.80;;;19.60;;
64188;SDS011;50493;50.970;10.082;2023-02-17T02:59:19;40.63;;;20.88;;
64188;SDS011;50493;50.970;10.082;2023-02-17T03:01:56;37.45;;;19.65;;
64188;SDS011;50493;50.970;10.082;2023-02-17T03:04:28;34.22;;;18.05;;
64188;SDS011;50493;50.970;10.082;2023-02-17T03:07:02;32.72;;;17.50;;
64188;SDS011;50493;50.970;10.082;2023-02-17T03:09:33;29.10;;;14.98;;
64188;SDS011;50493;50.970;10.082;2023-02-17T03:11:58;37.85;;;19.60;;
64188;SDS011;50493;50.970;10.082;2023-02-17T03:14:24;34.42;;;18.80;;
64188;SDS011;50493;50.970;10.082;2023-02-17T03:16:51;32.50;;;18.98;;
64188;SDS011;50493;50.970;10.082;2023-02-17T03:19:17;33.13;;;19.13;;
64188;SDS011;50493;50.970;10.082;2023-02-17T03:21:46;32.30;;;18.92;;
64188;SDS011;50493;50.970;10.082;2023-02-17T03:24:15;31.50;;;17.13;;
64188;SDS011;50493;50.970;10.082;2023-02-17T03:26:41;28.30;;;15.40;;
64188;SDS011;50493;50.970;10.082;2023-02-17T03:29:06;30.15;;;16.20;;
64188;SDS011;50493;50.970;10.082;2023-02-17T03:31:32;35.97;;;19.30;;
64188;SDS011;50493;50.970;10.082;2023-02-17T03:33:58;33.17;;;17.92;;
64188;SDS011;50493;50.970;10.082;2023-02-17T03:36:23;35.47;;;19.40;;
64188;SDS011;50493;50.970;10.082;2023-02-17T03:38:49;35.10;;;20.02;;
64188;SDS011;50493;50.970;10.082;2023-02-17T03:41:16;36.40;;;19.23;;
64188;SDS011;50493;50.970;10.082;2023-02-17T03:43:41;32.05;;;16.50;;
64188;SDS011;50493;50.970;10.082;2023-02-17T03:46:09;33.63;;;14.05;;
64188;SDS011;50493;50.970;10.082;2023-02-17T03:48:34;30.95;;;17.08;;
64188;SDS011;50493;50.970;10.082;2023-02-17T03:51:08;35.80;;;19.33;;
64188;SDS011;50493;50.970;10.082;2023-02-17T03:53:34;36.42;;;18.20;;
64188;SDS011;50493;50.970;10.082;2023-02-17T03:55:59;31.95;;;17.20;;
64188;SDS011;50493;50.970;10.082;2023-02-17T03:58:26;31.17;;;18.42;;
64188;SDS011;50493;50.970;10.082;2023-02-17T04:00:51;31.35;;;17.52;;
64188;SDS011;50493;50.970;10.082;2023-02-17T04:03:16;33.38;;;18.15;;
64188;SDS011;50493;50.970;10.082;2023-02-17T04:05:43;32.50;;;18.42;;
64188;SDS011;50493;50.970;10.082;2023-02-17T04:08:08;32.72;;;17.90;;
64188;SDS011;50493;50.970;10.082;2023-02-17T04:10:34;32.97;;;16.48;;
64188;SDS011;50493;50.970;10.082;2023-02-17T04:12:59;26.15;;;15.18;;
64188;SDS011;50493;50.970;10.082;2023-02-17T04:15:26;33.63;;;17.73;;
64188;SDS011;50493;50.970;10.082;2023-02-17T04:17:51;32.63;;;16.98;;
64188;SDS011;50493;50.970;10.082;2023-02-17T04:20:16;36.25;;;18.15;;
64188;SDS011;50493;50.970;10.082;2023-02-17T04:22:42;31.50;;;18.00;;
64188;SDS011;50493;50.970;10.082;2023-02-17T04:25:07;32.33;;;17.20;;
64188;SDS011;50493;50.970;10.082;2023-02-17T04:27:32;34.65;;;19.05;;
64188;SDS011;50493;50.970;10.082;2023-02-17T04:29:58;34.22;;;17.95;;
64188;SDS011;50493;50.970;10.082;2023-02-17T04:32:25;26.98;;;13.75;;
64188;SDS011;50493;50.970;10.082;2023-02-17T04:34:50;33.22;;;19.27;;
64188;SDS011;50493;50.970;10.082;2023-02-17T04:37:15;29.95;;;15.43;;
64188;SDS011;50493;50.970;10.082;2023-02-17T04:39:41;30.73;;;15.85;;
64188;SDS011;50493;50.970;10.082;2023-02-17T04:42:06;35.70;;;18.67;;
64188;SDS011;50493;50.970;10.082;2023-02-17T04:44:31;33.95;;;18.63;;
64188;SDS011;50493;50.970;10.082;2023-02-17T04:46:57;39.92;;;19.27;;
64188;SDS011;50493;50.970;10.082;2023-02-17T04:49:24;33.30;;;19.15;;
64188;SDS011;50493;50.970;10.082;2023-02-17T04:51:49;34.75;;;17.55;;
64188;SDS011;50493;50.970;10.082;2023-02-17T04:54:14;33.63;;;17.75;;
64188;SDS011;50493;50.970;10.082;2023-02-17T04:56:40;28.80;;;15.68;;
64188;SDS011;50493;50.970;10.082;2023-02-17T04:59:05;33.22;;;19.42;;
64188;SDS011;50493;50.970;10.082;2023-02-17T05:01:30;33.67;;;18.48;;
64188;SDS011;50493;50.970;10.082;2023-02-17T05:03:55;35.33;;;19.02;;
64188;SDS011;50493;50.970;10.082;2023-02-17T05:06:22;34.10;;;16.45;;
64188;SDS011;50493;50.970;10.082;2023-02-17T05:08:47;31.90;;;17.38;;
64188;SDS011;50493;50.970;10.082;2023-02-17T05:11:14;30.48;;;17.08;;
64188;SDS011;50493;50.970;10.082;2023-02-17T05:13:39;32.55;;;18.10;;
64188;SDS011;50493;50.970;10.082;2023-02-17T05:16:05;37.78;;;19.42;;
64188;SDS011;50493;50.970;10.082;2023-02-17T05:18:30;29.40;;;16.17;;
64188;SDS011;50493;50.970;10.082;2023-02-17T05:20:56;30.75;;;16.30;;
64188;SDS011;50493;50.970;10.082;2023-02-17T05:23:23;34.28;;;17.70;;
64188;SDS011;50493;50.970;10.082;2023-02-17T05:25:48;33.08;;;16.77;;
64188;SDS011;50493;50.970;10.082;2023-02-17T05:28:13;32.20;;;18.20;;
64188;SDS011;50493;50.970;10.082;2023-02-17T05:30:39;31.17;;;15.95;;
64188;SDS011;50493;50.970;10.082;2023-02-17T05:33:04;29.00;;;16.75;;
64188;SDS011;50493;50.970;10.082;2023-02-17T05:35:29;30.25;;;16.35;;
64188;SDS011;50493;50.970;10.082;2023-02-17T05:37:55;28.88;;;16.55;;
64188;SDS011;50493;50.970;10.082;2023-02-17T05:40:21;28.90;;;15.98;;
64188;SDS011;50493;50.970;10.082;2023-02-17T05:42:47;25.35;;;14.18;;
64188;SDS011;50493;50.970;10.082;2023-02-17T05:45:12;23.73;;;11.52;;
64188;SDS011;50493;50.970;10.082;2023-02-17T05:47:37;25.42;;;13.93;;
64188;SDS011;50493;50.970;10.082;2023-02-17T05:50:03;21.80;;;12.50;;
64188;SDS011;50493;50.970;10.082;2023-02-17T05:52:29;22.58;;;12.20;;
64188;SDS011;50493;50.970;10.082;2023-02-17T05:54:54;24.83;;;14.73;;
64188;SDS011;50493;50.970;10.082;2023-02-17T05:57:21;28.05;;;15.88;;
64188;SDS011;50493;50.970;10.082;2023-02-17T05:59:46;21.00;;;9.63;;
64188;SDS011;50493;50.970;10.082;2023-02-17T06:02:12;26.33;;;14.85;;
64188;SDS011;50493;50.970;10.082;2023-02-17T06:04:37;25.52;;;14.88;;
64188;SDS011;50493;50.970;10.082;2023-02-17T06:07:02;23.95;;;11.18;;
64188;SDS011;50493;50.970;10.082;2023-02-17T06:09:28;24.17;;;12.82;;
64188;SDS011;50493;50.970;10.082;2023-02-17T06:11:53;28.05;;;14.82;;
64188;SDS011;50493;50.970;10.082;2023-02-17T06:14:20;29.73;;;15.00;;
64188;SDS011;50493;50.970;10.082;2023-02-17T06:16:45;26.10;;;15.48;;
64188;SDS011;50493;50.970;10.082;2023-02-17T06:19:11;23.98;;;12.77;;
64188;SDS011;50493;50.970;10.082;2023-02-17T06:21:36;21.35;;;11.90;;
64188;SDS011;50493;50.970;10.082;2023-02-17T06:24:02;24.73;;;13.43;;
64188;SDS011;50493;50.970;10.082;2023-02-17T06:26:27;26.30;;;13.82;;
64188;SDS011;50493;50.970;10.082;2023-02-17T06:28:52;24.73;;;14.43;;
64188;SDS011;50493;50.970;10.082;2023-02-17T06:31:19;20.20;;;11.18;;
64188;SDS011;50493;50.970;10.082;2023-02-17T06:33:45;21.90;;;12.98;;
64188;SDS011;50493;50.970;10.082;2023-02-17T06:36:11;22.15;;;12.50;;
64188;SDS011;50493;50.970;10.082;2023-02-17T06:38:36;23.48;;;13.40;;
64188;SDS011;50493;50.970;10.082;2023-02-17T06:41:01;20.63;;;11.60;;
64188;SDS011;50493;50.970;10.082;2023-02-17T06:43:27;18.63;;;11.32;;
64188;SDS011;50493;50.970;10.082;2023-02-17T06:45:52;18.25;;;9.68;;
64188;SDS011;50493;50.970;10.082;2023-02-17T06:48:19;17.75;;;10.40;;
64188;SDS011;50493;50.970;10.082;2023-02-17T06:50:44;19.52;;;11.82;;
64188;SDS011;50493;50.970;10.082;2023-02-17T06:53:09;17.95;;;9.93;;
64188;SDS011;50493;50.970;10.082;2023-02-17T06:55:35;15.63;;;8.55;;
64188;SDS011;50493;50.970;10.082;2023-02-17T06:58:03;15.38;;;9.02;;
64188;SDS011;50493;50.970;10.082;2023-02-17T07:00:28;16.88;;;9.65;;
64188;SDS011;50493;50.970;10.082;2023-02-17T07:02:53;16.13;;;8.15;;
64188;SDS011;50493;50.970;10.082;2023-02-17T07:05:20;18.08;;;11.15;;
64188;SDS011;50493;50.970;10.082;2023-02-17T07:07:46;16.10;;;9.20;;
64188;SDS011;50493;50.970;10.082;2023-02-17T07:10:11;17.45;;;10.65;;
64188;SDS011;50493;50.970;10.082;2023-02-17T07:12:37;15.98;;;8.18;;
64188;SDS011;50493;50.970;10.082;2023-02-17T07:15:02;17.25;;;10.23;;
64188;SDS011;50493;50.970;10.082;2023-02-17T07:17:28;12.43;;;6.43;;
64188;SDS011;50493;50.970;10.082;2023-02-17T07:19:53;14.32;;;7.40;;
64188;SDS011;50493;50.970;10.082;2023-02-17T07:22:20;14.10;;;7.10;;
64188;SDS011;50493;50.970;10.082;2023-02-17T07:24:46;18.33;;;10.82;;
64188;SDS011;50493;50.970;10.082;2023-02-17T07:27:11;13.98;;;7.72;;
64188;SDS011;50493;50.970;10.082;2023-02-17T07:29:36;15.70;;;9.60;;
64188;SDS011;50493;50.970;10.082;2023-02-17T07:32:02;13.10;;;7.63;;
64188;SDS011;50493;50.970;10.082;2023-02-17T07:34:27;14.70;;;8.10;;
64188;SDS011;50493;50.970;10.082;2023-02-17T07:36:53;11.30;;;6.80;;
64188;SDS011;50493;50.970;10.082;2023-02-17T07:39:19;14.45;;;7.40;;
64188;SDS011;50493;50.970;10.082;2023-02-17T07:41:45;12.07;;;6.95;;
64188;SDS011;50493;50.970;10.082;2023-02-17T07:44:10;14.95;;;7.88;;
64188;SDS011;50493;50.970;10.082;2023-02-17T07:46:36;11.75;;;7.03;;
64188;SDS011;50493;50.970;10.082;2023-02-17T07:49:03;11.60;;;7.00;;
64188;SDS011;50493;50.970;10.082;2023-02-17T07:51:29;9.90;;;5.68;;
64188;SDS011;50493;50.970;10.082;2023-02-17T07:53:55;10.75;;;6.65;;
64188;SDS011;50493;50.970;10.082;2023-02-17T07:56:22;12.77;;;7.47;;
64188;SDS011;50493;50.970;10.082;2023-02-17T07:58:48;11.88;;;6.68;;
64188;SDS011;50493;50.970;10.082;2023-02-17T08:01:14;11.77;;;6.68;;
64188;SDS011;50493;50.970;10.082;2023-02-17T08:03:41;12.93;;;7.32;;
64188;SDS011;50493;50.970;10.082;2023-02-17T08:06:08;10.73;;;6.55;;
64188;SDS011;50493;50.970;10.082;2023-02-17T08:08:34;10.55;;;6.20;;
64188;SDS011;50493;50.970;10.082;2023-02-17T08:11:18;8.85;;;5.40;;
64188;SDS011;50493;50.970;10.082;2023-02-17T08:14:03;10.02;;;6.57;;
64188;SDS011;50493;50.970;10.082;2023-02-17T08:16:28;10.05;;;5.97;;
64188;SDS011;50493;50.970;10.082;2023-02-17T08:18:54;8.73;;;5.30;;
64188;SDS011;50493;50.970;10.082;2023-02-17T08:21:19;9.88;;;5.80;;
64188;SDS011;50493;50.970;10.082;2023-02-17T08:23:45;9.50;;;5.30;;
64188;SDS011;50493;50.970;10.082;2023-02-17T08:26:10;10.82;;;5.28;;
64188;SDS011;50493;50.970;10.082;2023-02-17T08:28:36;9.88;;;4.72;;
64188;SDS011;50493;50.970;10.082;2023-02-17T08:31:02;7.90;;;4.95;;
64188;SDS011;50493;50.970;10.082;2023-02-17T08:33:28;9.02;;;5.50;;
64188;SDS011;50493;50.970;10.082;2023-02-17T08:35:53;8.45;;;5.07;;
64188;SDS011;50493;50.970;10.082;2023-02-17T08:38:19;10.73;;;6.15;;
64188;SDS011;50493;50.970;10.082;2023-02-17T08:40:44;10.63;;;5.53;;
64188;SDS011;50493;50.970;10.082;2023-02-17T08:43:09;10.48;;;6.07;;
64188;SDS011;50493;50.970;10.082;2023-02-17T08:45:35;9.65;;;5.45;;
64188;SDS011;50493;50.970;10.082;2023-02-17T08:48:02;9.63;;;5.72;;
64188;SDS011;50493;50.970;10.082;2023-02-17T08:50:57;9.80;;;5.30;;
64188;SDS011;50493;50.970;10.082;2023-02-17T08:54:14;9.52;;;5.43;;
64188;SDS011;50493;50.970;10.082;2023-02-17T08:56:40;9.68;;;5.50;;
64188;SDS011;50493;50.970;10.082;2023-02-17T08:59:07;8.95;;;5.22;;
64188;SDS011;50493;50.970;10.082;2023-02-17T09:01:34;11.38;;;5.30;;
64188;SDS011;50493;50.970;10.082;2023-02-17T09:04:02;8.65;;;5.30;;
64188;SDS011;50493;50.970;10.082;2023-02-17T09:06:32;9.15;;;5.07;;
64188;SDS011;50493;50.970;10.082;2023-02-17T09:08:59;10.20;;;5.25;;
64188;SDS011;50493;50.970;10.082;2023-02-17T09:11:25;10.45;;;5.90;;
64188;SDS011;50493;50.970;10.082;2023-02-17T09:13:50;8.98;;;5.10;;
64188;SDS011;50493;50.970;10.082;2023-02-17T09:16:16;8.38;;;5.25;;
64188;SDS011;50493;50.970;10.082;2023-02-17T09:18:44;9.32;;;5.55;;
64188;SDS011;50493;50.970;10.082;2023-02-17T09:21:11;9.27;;;5.45;;
64188;SDS011;50493;50.970;10.082;2023-02-17T09:23:37;7.72;;;4.60;;
64188;SDS011;50493;50.970;10.082;2023-02-17T09:26:03;8.15;;;5.00;;
64188;SDS011;50493;50.970;10.082;2023-02-17T09:28:30;10.45;;;5.30;;
64188;SDS011;50493;50.970;10.082;2023-02-17T09:30:55;17.42;;;6.97;;
64188;SDS011;50493;50.970;10.082;2023-02-17T09:33:21;10.02;;;5.35;;
64188;SDS011;50493;50.970;10.082;2023-02-17T09:35:46;8.77;;;4.95;;
64188;SDS011;50493;50.970;10.082;2023-02-17T09:38:14;10.02;;;5.95;;
64188;SDS011;50493;50.970;10.082;2023-02-17T09:40:41;12.75;;;5.68;;
64188;SDS011;50493;50.970;10.082;2023-02-17T09:43:10;9.65;;;5.82;;
64188;SDS011;50493;50.970;10.082;2023-02-17T09:45:38;10.75;;;5.45;;
64188;SDS011;50493;50.970;10.082;2023-02-17T09:48:07;10.07;;;5.90;;
64188;SDS011;50493;50.970;10.082;2023-02-17T09:50:36;8.88;;;5.50;;
64188;SDS011;50493;50.970;10.082;2023-02-17T09:53:08;8.63;;;5.35;;
64188;SDS011;50493;50.970;10.082;2023-02-17T09:55:45;9.82;;;5.40;;
64188;SDS011;50493;50.970;10.082;2023-02-17T09:58:14;7.82;;;4.97;;
64188;SDS011;50493;50.970;10.082;2023-02-17T10:00:44;10.32;;;6.00;;
64188;SDS011;50493;50.970;10.082;2023-02-17T10:03:13;7.97;;;4.63;;
64188;SDS011;50493;50.970;10.082;2023-02-17T10:05:44;7.82;;;4.93;;
64188;SDS011;50493;50.970;10.082;2023-02-17T10:08:15;9.20;;;5.25;;
64188;SDS011;50493;50.970;10.082;2023-02-17T10:10:44;8.20;;;4.60;;
64188;SDS011;50493;50.970;10.082;2023-02-17T10:13:15;7.45;;;4.68;;
64188;SDS011;50493;50.970;10.082;2023-02-17T10:15:43;8.27;;;4.78;;
64188;SDS011;50493;50.970;10.082;2023-02-17T10:18:15;7.57;;;4.78;;
64188;SDS011;50493;50.970;10.082;2023-02-17T10:20:46;8.07;;;4.90;;
64188;SDS011;50493;50.970;10.082;2023-02-17T10:23:18;7.53;;;4.18;;
64188;SDS011;50493;50.970;10.082;2023-02-17T10:28:38;9.70;;;4.60;;
64188;SDS011;50493;50.970;10.082;2023-02-17T10:31:18;7.00;;;4.18;;
64188;SDS011;50493;50.970;10.082;2023-02-17T10:33:51;6.03;;;3.72;;
64188;SDS011;50493;50.970;10.082;2023-02-17T10:36:24;7.55;;;4.13;;
64188;SDS011;50493;50.970;10.082;2023-02-17T10:38:55;6.85;;;3.90;;
64188;SDS011;50493;50.970;10.082;2023-02-17T10:41:26;6.50;;;4.00;;
64188;SDS011;50493;50.970;10.082;2023-02-17T10:44:03;6.22;;;3.38;;
64188;SDS011;50493;50.970;10.082;2023-02-17T10:46:32;6.53;;;3.75;;
64188;SDS011;50493;50.970;10.082;2023-02-17T10:48:58;7.15;;;4.03;;
64188;SDS011;50493;50.970;10.082;2023-02-17T10:51:25;6.57;;;4.00;;
64188;SDS011;50493;50.970;10.082;2023-02-17T10:53:53;7.40;;;4.25;;
64188;SDS011;50493;50.970;10.082;2023-02-17T10:56:25;6.75;;;4.03;;
64188;SDS011;50493;50.970;10.082;2023-02-17T10:58:56;6.07;;;3.55;;
64188;SDS011;50493;50.970;10.082;2023-02-17T11:01:30;4.53;;;2.80;;
64188;SDS011;50493;50.970;10.082;2023-02-17T11:04:00;8.23;;;3.50;;
64188;SDS011;50493;50.970;10.082;2023-02-17T11:06:28;8.60;;;4.28;;
64188;SDS011;50493;50.970;10.082;2023-02-17T11:08:58;7.60;;;4.40;;
64188;SDS011;50493;50.970;10.082;2023-02-17T11:11:26;5.97;;;3.10;;
64188;SDS011;50493;50.970;10.082;2023-02-17T11:14:00;7.25;;;3.75;;
64188;SDS011;50493;50.970;10.082;2023-02-17T11:16:34;6.97;;;3.88;;
64188;SDS011;50493;50.970;10.082;2023-02-17T11:19:02;6.82;;;4.38;;
64188;SDS011;50493;50.970;10.082;2023-02-17T11:21:28;6.60;;;3.88;;
64188;SDS011;50493;50.970;10.082;2023-02-17T11:23:54;5.95;;;3.60;;
64188;SDS011;50493;50.970;10.082;2023-02-17T11:26:25;10.27;;;4.45;;
64188;SDS011;50493;50.970;10.082;2023-02-17T11:28:52;6.88;;;4.13;;
64188;SDS011;50493;50.970;10.082;2023-02-17T11:31:21;7.55;;;4.50;;
64188;SDS011;50493;50.970;10.082;2023-02-17T11:33:47;8.25;;;4.03;;
64188;SDS011;50493;50.970;10.082;2023-02-17T11:36:20;7.18;;;3.65;;
64188;SDS011;50493;50.970;10.082;2023-02-17T11:38:47;6.38;;;3.97;;
64188;SDS011;50493;50.970;10.082;2023-02-17T11:41:12;8.15;;;4.78;;
64188;SDS011;50493;50.970;10.082;2023-02-17T11:43:49;7.78;;;3.92;;
64188;SDS011;50493;50.970;10.082;2023-02-17T11:46:19;6.38;;;3.60;;
64188;SDS011;50493;50.970;10.082;2023-02-17T11:49:01;7.43;;;4.15;;
64188;SDS011;50493;50.970;10.082;2023-02-17T11:51:58;6.95;;;3.45;;
64188;SDS011;50493;50.970;10.082;2023-02-17T11:54:30;6.03;;;3.38;;
64188;SDS011;50493;50.970;10.082;2023-02-17T11:57:05;6.53;;;3.92;;
64188;SDS011;50493;50.970;10.082;2023-02-17T11:59:53;6.68;;;3.30;;
64188;SDS011;50493;50.970;10.082;2023-02-17T12:02:46;7.47;;;4.03;;
64188;SDS011;50493;50.970;10.082;2023-02-17T12:05:24;6.20;;;3.85;;
64188;SDS011;50493;50.970;10.082;2023-02-17T12:07:59;6.47;;;3.22;;
64188;SDS011;50493;50.970;10.082;2023-02-17T12:10:39;5.75;;;2.92;;
64188;SDS011;50493;50.970;10.082;2023-02-17T12:13:16;7.95;;;4.13;;
64188;SDS011;50493;50.970;10.082;2023-02-17T12:15:58;5.55;;;2.80;;
64188;SDS011;50493;50.970;10.082;2023-02-17T12:18:37;5.50;;;2.63;;
64188;SDS011;50493;50.970;10.082;2023-02-17T12:21:11;7.90;;;3.90;;
64188;SDS011;50493;50.970;10.082;2023-02-17T12:23:53;7.68;;;4.10;;
64188;SDS011;50493;50.970;10.082;2023-02-17T12:26:40;5.95;;;3.00;;
64188;SDS011;50493;50.970;10.082;2023-02-17T12:29:12;7.30;;;4.40;;
64188;SDS011;50493;50.970;10.082;2023-02-17T12:31:59;4.80;;;3.22;;
64188;SDS011;50493;50.970;10.082;2023-02-17T12:34:33;4.70;;;2.13;;
64188;SDS011;50493;50.970;10.082;2023-02-17T12:37:02;5.55;;;2.85;;
64188;SDS011;50493;50.970;10.082;2023-02-17T12:39:32;5.25;;;3.05;;
64188;SDS011;50493;50.970;10.082;2023-02-17T12:42:02;5.45;;;3.00;;
64188;SDS011;50493;50.970;10.082;2023-02-17T12:44:32;5.97;;;3.30;;
64188;SDS011;50493;50.970;10.082;2023-02-17T12:47:05;4.88;;;3.20;;
64188;SDS011;50493;50.970;10.082;2023-02-17T12:49:38;4.72;;;2.72;;
64188;SDS011;50493;50.970;10.082;2023-02-17T12:52:07;5.75;;;2.92;;
64188;SDS011;50493;50.970;10.082;2023-02-17T12:54:37;5.35;;;3.05;;
64188;SDS011;50493;50.970;10.082;2023-02-17T12:57:15;6.20;;;2.50;;
64188;SDS011;50493;50.970;10.082;2023-02-17T12:59:43;5.00;;;2.55;;
64188;SDS011;50493;50.970;10.082;2023-02-17T13:02:12;6.03;;;3.38;;
64188;SDS011;50493;50.970;10.082;2023-02-17T13:04:39;4.88;;;2.95;;
64188;SDS011;50493;50.970;10.082;2023-02-17T13:07:14;5.07;;;3.20;;
64188;SDS011;50493;50.970;10.082;2023-02-17T13:09:50;4.70;;;2.47;;
64188;SDS011;50493;50.970;10.082;2023-02-17T13:12:33;4.88;;;3.20;;
64188;SDS011;50493;50.970;10.082;2023-02-17T13:15:02;5.90;;;2.53;;
64188;SDS011;50493;50.970;10.082;2023-02-17T13:17:31;3.83;;;2.20;;
64188;SDS011;50493;50.970;10.082;2023-02-17T13:20:00;5.10;;;2.67;;
64188;SDS011;50493;50.970;10.082;2023-02-17T13:24:53;4.07;;;2.15;;
64188;SDS011;50493;50.970;10.082;2023-02-17T13:27:20;5.65;;;2.95;;
64188;SDS011;50493;50.970;10.082;2023-02-17T13:29:57;4.50;;;2.45;;
64188;SDS011;50493;50.970;10.082;2023-02-17T13:32:25;5.95;;;2.92;;
64188;SDS011;50493;50.970;10.082;2023-02-17T13:34:59;6.15;;;2.95;;
64188;SDS011;50493;50.970;10.082;2023-02-17T13:37:36;4.35;;;2.50;;
64188;SDS011;50493;50.970;10.082;2023-02-17T13:40:24;5.47;;;2.90;;
64188;SDS011;50493;50.970;10.082;2023-02-17T13:43:05;4.90;;;2.75;;
64188;SDS011;50493;50.970;10.082;2023-02-17T13:45:33;4.40;;;2.85;;
64188;SDS011;50493;50.970;10.082;2023-02-17T13:48:10;4.95;;;2.90;;
64188;SDS011;50493;50.970;10.082;2023-02-17T13:50:44;3.85;;;2.10;;
64188;SDS011;50493;50.970;10.082;2023-02-17T13:53:27;5.03;;;2.70;;
64188;SDS011;50493;50.970;10.082;2023-02-17T13:55:55;4.78;;;2.80;;
64188;SDS011;50493;50.970;10.082;2023-02-17T13:58:23;4.22;;;2.33;;
64188;SDS011;50493;50.970;10.082;2023-02-17T14:00:51;4.03;;;2.13;;
64188;SDS011;50493;50.970;10.082;2023-02-17T14:03:19;5.72;;;3.08;;
64188;SDS011;50493;50.970;10.082;2023-02-17T14:05:48;4.50;;;2.17;;
64188;SDS011;50493;50.970;10.082;2023-02-17T14:08:17;4.25;;;2.35;;
64188;SDS011;50493;50.970;10.082;2023-02-17T14:10:45;4.90;;;2.72;;
64188;SDS011;50493;50.970;10.082;2023-02-17T14:13:11;4.10;;;2.50;;
64188;SDS011;50493;50.970;10.082;2023-02-17T14:15:47;4.60;;;2.17;;
64188;SDS011;50493;50.970;10.082;2023-02-17T14:18:14;5.18;;;2.55;;
64188;SDS011;50493;50.970;10.082;2023-02-17T14:20:40;5.57;;;2.80;;
64188;SDS011;50493;50.970;10.082;2023-02-17T14:23:08;4.60;;;2.63;;
64188;SDS011;50493;50.970;10.082;2023-02-17T14:25:38;4.15;;;2.58;;
64188;SDS011;50493;50.970;10.082;2023-02-17T14:28:15;4.43;;;2.50;;
64188;SDS011;50493;50.970;10.082;2023-02-17T14:30:42;3.58;;;2.47;;
64188;SDS011;50493;50.970;10.082;2023-02-17T14:33:16;6.03;;;2.58;;
64188;SDS011;50493;50.970;10.082;2023-02-17T14:35:48;4.15;;;2.05;;